Time;durP1;ratioP1;P1;durP2;ratioP2;P2;SDS_P1;SDS_P2;PMS_P1;PMS_P2;Temp;Humidity;BMP_temperature;BMP_pressure;BME280_temperature;BME280_humidity;BME280_pressure;Samples;Min_cycle;Max_cycle;Signal;HPM_P1;HPM_P2
2023/10/20 00:00:19;;;;;;;46.83;29.88;;;;;;;10.01;84.83;95608.94;10419328;28;20065;-70
2023/10/20 00:06:00;;;;;;;44.83;30.10;;;;;;;9.97;85.24;95606.72;10400179;28;20407;-70
2023/10/20 00:11:21;;;;;;;50.75;32.03;;;;;;;9.97;84.95;95595.59;10394405;28;20072;-71
2023/10/20 00:16:42;;;;;;;49.95;33.03;;;;;;;9.92;85.19;95590.50;10408318;28;20045;-70
2023/10/20 00:22:03;;;;;;;51.17;33.28;;;;;;;9.99;85.40;95594.94;10408227;28;20048;-70
2023/10/20 00:27:24;;;;;;;55.25;35.50;;;;;;;9.95;85.50;95595.53;10394126;28;20045;-70
2023/10/20 00:32:45;;;;;;;52.00;34.47;;;;;;;10.05;85.69;95603.53;10393838;28;20057;-70
2023/10/20 00:38:06;;;;;;;51.63;34.60;;;;;;;10.04;85.32;95605.59;10394247;28;20048;-71
2023/10/20 00:43:35;;;;;;;55.42;35.42;;;;;;;10.01;85.72;95606.16;10407163;28;20046;-71
2023/10/20 00:48:56;;;;;;;52.90;32.65;;;;;;;10.01;85.73;95586.63;10379771;28;20054;-73
2023/10/20 00:54:20;;;;;;;55.17;34.53;;;;;;;10.03;86.00;95573.47;10393349;28;20042;-71
2023/10/20 00:59:42;;;;;;;57.72;34.63;;;;;;;10.04;85.35;95558.22;10406902;28;20041;-70
2023/10/20 01:05:06;;;;;;;54.40;34.28;;;;;;;10.03;85.86;95548.41;10379009;28;20053;-70
2023/10/20 01:10:29;;;;;;;55.45;34.53;;;;;;;10.03;85.30;95558.84;10406803;28;20120;-70
2023/10/20 01:15:50;;;;;;;56.65;35.33;;;;;;;10.08;86.10;95540.19;10392014;28;20047;-70
2023/10/20 01:21:11;;;;;;;52.85;33.42;;;;;;;10.08;85.71;95520.69;10378535;28;20041;-70
2023/10/20 01:26:32;;;;;;;51.58;32.83;;;;;;;10.06;85.44;95495.53;10378275;28;20076;-71
2023/10/20 01:31:53;;;;;;;54.55;34.22;;;;;;;9.99;86.15;95481.38;10391783;28;20255;-71
2023/10/20 01:37:14;;;;;;;62.75;37.22;;;;;;;9.88;85.90;95460.13;10405307;28;20099;-71
2023/10/20 01:42:35;;;;;;;71.25;37.38;;;;;;;9.78;85.13;95457.00;10377360;28;20167;-70
2023/10/20 01:47:56;;;;;;;62.25;37.58;;;;;;;9.72;87.92;95459.56;10377579;28;20067;-71
2023/10/20 01:53:17;;;;;;;62.03;38.20;;;;;;;9.70;86.71;95440.72;10390738;28;20065;-70
2023/10/20 01:58:38;;;;;;;63.38;36.92;;;;;;;9.69;87.94;95436.50;10390684;28;20068;-70
2023/10/20 02:03:59;;;;;;;62.67;38.83;;;;;;;9.70;89.20;95432.34;10376351;28;20057;-70
2023/10/20 02:09:21;;;;;;;68.78;40.80;;;;;;;9.68;88.11;95420.44;10390564;28;20041;-71
2023/10/20 02:14:43;;;;;;;76.45;42.83;;;;;;;9.65;90.15;95416.88;10376708;28;20483;-70
2023/10/20 02:20:04;;;;;;;64.13;39.50;;;;;;;9.64;89.53;95420.28;10376172;28;20121;-70
2023/10/20 02:25:26;;;;;;;65.55;40.25;;;;;;;9.64;89.67;95412.63;10375884;28;20042;-70
2023/10/20 02:30:47;;;;;;;65.22;40.22;;;;;;;9.58;89.13;95395.03;10389038;28;20045;-70
2023/10/20 02:36:08;;;;;;;67.45;41.17;;;;;;;9.56;88.91;95394.97;10388995;28;20049;-70
2023/10/20 02:41:29;;;;;;;68.13;41.53;;;;;;;9.57;90.14;95397.09;10388570;28;20041;-70
2023/10/20 02:46:51;;;;;;;65.35;40.22;;;;;;;9.61;90.52;95388.88;10402433;28;20096;-71
2023/10/20 02:52:13;;;;;;;61.78;38.53;;;;;;;9.65;89.80;95383.44;10417174;28;20046;-71
2023/10/20 02:57:36;;;;;;;62.75;38.33;;;;;;;9.74;89.69;95387.19;10388415;28;20456;-70
2023/10/20 03:02:58;;;;;;;60.23;36.80;;;;;;;9.77;89.36;95399.84;10402282;28;20057;-70
2023/10/20 03:08:19;;;;;;;61.05;37.42;;;;;;;9.75;89.85;95399.78;10416390;28;20045;-70
2023/10/20 03:13:40;;;;;;;62.83;38.70;;;;;;;9.75;89.54;95399.78;10401501;28;20046;-70
2023/10/20 03:19:01;;;;;;;64.20;39.08;;;;;;;9.81;90.33;95399.25;10401127;28;20484;-70
2023/10/20 03:24:23;;;;;;;54.70;35.33;;;;;;;9.89;90.13;95380.00;10387499;28;20091;-70
2023/10/20 03:29:45;;;;;;;57.85;37.97;;;;;;;9.95;90.26;95380.94;10374188;28;20053;-70
2023/10/20 03:35:07;;;;;;;60.67;38.55;;;;;;;9.92;89.72;95382.22;10400121;28;20046;-70
2023/10/20 03:40:30;;;;;;;56.25;37.50;;;;;;;9.96;89.49;95365.63;10387239;28;20061;-70
2023/10/20 03:45:56;;;;;;;58.55;37.42;;;;;;;9.91;89.49;95358.50;10374221;28;20436;-70
2023/10/20 03:51:18;;;;;;;65.05;41.75;;;;;;;9.89;89.99;95346.56;10415435;28;20052;-70
2023/10/20 03:56:39;;;;;;;56.42;36.40;;;;;;;9.86;88.99;95340.25;10374294;28;20057;-70
2023/10/20 04:02:01;;;;;;;59.13;38.53;;;;;;;9.80;89.48;95334.47;10378445;28;20081;-71
2023/10/20 04:07:24;;;;;;;61.10;37.25;;;;;;;9.79;90.15;95323.97;10393445;28;20041;-71
2023/10/20 04:12:45;;;;;;;61.95;38.78;;;;;;;9.80;90.69;95323.31;10394213;28;20045;-72
2023/10/20 04:18:06;;;;;;;61.42;37.28;;;;;;;9.81;90.83;95327.53;10386738;28;20083;-70
2023/10/20 04:23:27;;;;;;;58.17;36.55;;;;;;;9.83;90.42;95330.38;10386317;28;20045;-70
2023/10/20 04:29:07;;;;;;;58.83;36.90;;;;;;;9.90;90.68;95318.06;10399931;28;20037;-70
2023/10/20 04:51:53;;;;;;;58.42;37.22;;;;;;;10.08;90.25;95264.97;10421807;28;20041;-70
2023/10/20 05:08:23;;;;;;;60.45;37.17;;;;;;;10.13;90.62;95254.63;10396682;28;20058;-70
2023/10/20 05:13:44;;;;;;;54.25;35.45;;;;;;;10.14;90.60;95256.06;10392974;28;20051;-70
2023/10/20 05:19:05;;;;;;;52.45;33.55;;;;;;;10.16;90.79;95248.47;10420707;28;20041;-70
2023/10/20 05:24:26;;;;;;;54.67;34.20;;;;;;;10.19;90.01;95240.88;10420439;28;20053;-71
2023/10/20 05:29:47;;;;;;;61.40;36.80;;;;;;;10.15;89.56;95212.91;10405356;28;20053;-70
2023/10/20 05:35:09;;;;;;;59.95;36.97;;;;;;;10.03;90.02;95202.78;10405210;28;20116;-70
2023/10/20 05:40:30;;;;;;;65.45;38.40;;;;;;;9.99;89.65;95190.84;10419731;28;20482;-70
2023/10/20 05:45:51;;;;;;;63.15;39.03;;;;;;;9.95;90.40;95202.59;10391267;28;20495;-70
2023/10/20 05:51:12;;;;;;;60.10;37.63;;;;;;;9.90;90.61;95201.03;10390982;28;20049;-71
2023/10/20 05:56:33;;;;;;;62.00;38.80;;;;;;;9.82;91.09;95211.94;10403695;28;20112;-70
2023/10/20 06:01:54;;;;;;;59.67;37.10;;;;;;;9.90;90.67;95200.31;10419192;28;20057;-70
2023/10/20 06:07:15;;;;;;;65.43;40.40;;;;;;;9.87;91.15;95180.06;10419158;28;20060;-70
2023/10/20 06:12:36;;;;;;;61.20;38.30;;;;;;;9.84;90.80;95192.47;10403940;28;20406;-70
2023/10/20 06:17:57;;;;;;;60.97;38.00;;;;;;;9.88;90.60;95181.47;10389876;28;20056;-70
2023/10/20 06:23:18;;;;;;;61.10;37.42;;;;;;;9.91;90.43;95182.22;10376043;28;20041;-71
2023/10/20 06:28:39;;;;;;;58.10;37.67;;;;;;;10.00;91.01;95173.47;10418021;28;20103;-70
2023/10/20 06:34:09;;;;;;;61.67;37.47;;;;;;;10.14;91.16;95178.03;10402986;28;20099;-71
2023/10/20 06:39:30;;;;;;;58.00;35.95;;;;;;;10.17;90.68;95157.91;10391619;28;20061;-73
2023/10/20 06:44:51;;;;;;;60.95;37.95;;;;;;;10.24;90.56;95151.16;10417315;28;20072;-70
2023/10/20 06:50:12;;;;;;;56.92;35.83;;;;;;;10.29;91.21;95146.41;10388625;28;20049;-71
2023/10/20 06:55:33;;;;;;;56.08;35.42;;;;;;;10.38;91.22;95139.66;10389094;28;20049;-70
2023/10/20 07:00:57;;;;;;;55.50;33.92;;;;;;;10.46;90.86;95123.16;10417104;28;20045;-70
2023/10/20 07:06:17;;;;;;;57.75;36.13;;;;;;;10.48;90.95;95103.69;10416873;28;20476;-70
2023/10/20 07:11:39;;;;;;;53.65;33.30;;;;;;;10.51;90.96;95091.19;10374744;28;20088;-70
2023/10/20 07:17:03;;;;;;;58.53;33.78;;;;;;;10.53;90.91;95071.75;10374544;28;20050;-71
2023/10/20 07:22:24;;;;;;;56.90;34.05;;;;;;;10.59;90.53;95077.47;10388034;28;20041;-70
2023/10/20 07:27:48;;;;;;;64.40;35.23;;;;;;;10.59;91.43;95060.72;10374713;28;20476;-70
2023/10/20 07:33:09;;;;;;;58.30;33.95;;;;;;;10.65;90.47;95049.00;10415838;28;20053;-71
2023/10/20 07:38:29;;;;;;;54.22;32.40;;;;;;;10.63;91.51;95042.69;10360162;28;20053;-71
2023/10/20 07:43:50;;;;;;;51.25;31.73;;;;;;;10.74;92.07;95031.09;10401113;28;20045;-70
2023/10/20 07:49:11;;;;;;;56.83;32.58;;;;;;;10.91;91.88;95039.84;10415458;28;20038;-70
2023/10/20 07:54:33;;;;;;;52.67;32.92;;;;;;;11.06;92.19;95019.25;10386813;28;20391;-70
2023/10/20 07:59:55;;;;;;;57.42;32.17;;;;;;;11.18;91.68;95008.34;10400691;28;20116;-70
2023/10/20 08:05:16;;;;;;;53.97;32.47;;;;;;;11.27;90.98;95001.53;10386369;28;20523;-70
2023/10/20 08:10:38;;;;;;;50.42;31.95;;;;;;;11.27;91.80;94992.47;10373049;28;20125;-71
2023/10/20 08:16:06;;;;;;;52.40;32.63;;;;;;;11.25;91.19;94975.66;10386791;28;20041;-70
2023/10/20 08:21:29;;;;;;;45.03;29.40;;;;;;;11.21;91.04;94956.75;10377628;28;20057;-71
2023/10/20 08:26:50;;;;;;;48.38;29.08;;;;;;;11.21;91.40;94962.34;10409572;28;20048;-70
2023/10/20 08:32:12;;;;;;;47.92;30.23;;;;;;;11.28;91.29;94952.00;10394506;28;20049;-70
2023/10/20 08:37:34;;;;;;;48.00;29.67;;;;;;;11.45;91.88;94953.72;10380763;28;20072;-70
2023/10/20 08:42:54;;;;;;;46.78;29.30;;;;;;;11.84;91.53;94948.88;10393609;28;20144;-70
2023/10/20 08:48:15;;;;;;;48.97;29.83;;;;;;;11.99;90.68;94944.97;10407124;28;20041;-70
2023/10/20 08:53:37;;;;;;;48.00;29.58;;;;;;;12.12;90.60;94941.00;10393381;28;20045;-70
2023/10/20 08:58:58;;;;;;;49.88;30.98;;;;;;;12.20;89.98;94941.13;10379507;28;20045;-70
2023/10/20 09:04:26;;;;;;;43.67;27.30;;;;;;;12.17;89.91;94942.50;10406043;28;20049;-72
2023/10/20 09:09:47;;;;;;;46.88;29.17;;;;;;;12.24;89.95;94930.00;10392978;28;20276;-74
2023/10/20 09:15:09;;;;;;;48.10;30.48;;;;;;;12.29;89.84;94936.38;10392389;28;20136;-70
2023/10/20 09:20:30;;;;;;;53.58;32.33;;;;;;;12.24;90.42;94924.41;10406086;28;20060;-71
2023/10/20 09:25:51;;;;;;;52.13;32.53;;;;;;;12.18;90.29;94927.13;10392288;28;20045;-70
2023/10/20 09:31:11;;;;;;;47.08;31.20;;;;;;;12.05;91.08;94919.91;10390641;28;20061;-70
2023/10/20 09:36:33;;;;;;;49.30;31.05;;;;;;;11.99;92.35;94894.66;10393666;28;20049;-70
2023/10/20 09:41:54;;;;;;;56.95;33.80;;;;;;;12.12;92.07;94889.97;10393020;28;20420;-70
2023/10/20 09:47:21;;;;;;;49.45;32.72;;;;;;;12.18;92.77;94887.97;10391519;28;20605;-70
2023/10/20 09:52:42;;;;;;;51.30;32.05;;;;;;;12.32;92.48;94899.38;10391456;28;20539;-70
2023/10/20 09:58:03;;;;;;;53.88;31.48;;;;;;;12.37;91.92;94897.34;10377449;28;20069;-70
2023/10/20 10:03:37;;;;;;;45.65;30.80;;;;;;;12.51;92.41;94875.16;10404023;28;20148;-70
2023/10/20 10:08:58;;;;;;;46.50;31.42;;;;;;;12.57;92.46;94886.47;10392484;28;20518;-71
2023/10/20 10:14:20;;;;;;;48.70;31.73;;;;;;;12.63;92.56;94888.63;10418868;28;20057;-70
2023/10/20 10:19:48;;;;;;;45.65;30.88;;;;;;;12.60;92.44;94870.41;10389922;28;20068;-70
2023/10/20 10:25:09;;;;;;;46.08;30.77;;;;;;;12.77;92.50;94879.72;10390018;28;20041;-70
2023/10/20 10:30:30;;;;;;;42.63;25.60;;;;;;;13.00;92.30;94861.81;10375850;28;20052;-70
2023/10/20 10:36:03;;;;;;;42.33;30.40;;;;;;;13.15;91.90;94848.69;10389402;28;20442;-70
2023/10/20 10:41:24;;;;;;;39.97;26.25;;;;;;;13.27;91.89;94842.53;10389480;28;20452;-71
2023/10/20 10:46:47;;;;;;;41.75;27.92;;;;;;;13.34;91.38;94841.22;10389156;28;20052;-70
2023/10/20 10:52:08;;;;;;;43.15;27.98;;;;;;;13.44;91.29;94844.84;10388903;28;20164;-70
2023/10/20 10:57:29;;;;;;;39.40;27.98;;;;;;;13.53;91.41;94851.22;10402326;28;20042;-70
2023/10/20 11:02:49;;;;;;;39.95;26.40;;;;;;;13.51;91.09;94842.81;10374759;28;20053;-70
2023/10/20 11:08:10;;;;;;;39.28;27.95;;;;;;;13.55;91.14;94836.53;10402082;28;20042;-71
2023/10/20 11:13:36;;;;;;;41.22;27.70;;;;;;;13.71;91.24;94828.28;10416338;28;20042;-70
2023/10/20 11:18:56;;;;;;;36.72;26.52;;;;;;;13.81;90.81;94817.16;10416395;28;20052;-70
2023/10/20 11:24:31;;;;;;;38.53;27.83;;;;;;;13.99;90.15;94802.53;10415878;28;20061;-70
2023/10/20 11:29:52;;;;;;;35.22;23.50;;;;;;;13.96;89.90;94796.22;10388703;28;20065;-70
2023/10/20 11:35:21;;;;;;;36.78;26.33;;;;;;;14.01;90.47;94772.44;10376074;28;20429;-71
2023/10/20 11:40:42;;;;;;;33.95;24.15;;;;;;;14.03;89.92;94775.25;10386976;28;20061;-70
2023/10/20 11:46:05;;;;;;;34.10;24.92;;;;;;;14.11;90.22;94769.00;10387272;28;20643;-70
2023/10/20 11:51:26;;;;;;;30.13;22.88;;;;;;;14.28;89.89;94792.22;10415383;28;20459;-70
2023/10/20 11:56:47;;;;;;;35.75;25.30;;;;;;;14.29;89.38;94779.63;10405927;28;20050;-71
2023/10/20 12:02:08;;;;;;;32.28;22.27;;;;;;;14.40;89.25;94792.31;10424017;28;20492;-71
2023/10/20 12:07:29;;;;;;;33.03;23.40;;;;;;;14.54;89.52;94780.47;10408758;28;20121;-70
2023/10/20 12:12:51;;;;;;;29.13;21.35;;;;;;;14.74;88.95;94785.47;10408782;28;20041;-70
2023/10/20 12:18:12;;;;;;;30.60;23.07;;;;;;;14.96;88.67;94763.09;10381909;28;20076;-70
2023/10/20 12:23:33;;;;;;;29.90;21.30;;;;;;;15.22;88.04;94731.53;10381639;28;20041;-71
2023/10/20 12:28:56;;;;;;;34.58;22.23;;;;;;;15.46;86.86;94734.41;10422813;28;20120;-70
2023/10/20 12:34:18;;;;;;;27.70;19.33;;;;;;;15.53;87.31;94706.97;10408296;28;20498;-70
2023/10/20 12:39:40;;;;;;;34.07;22.80;;;;;;;15.58;86.08;94725.25;10380768;28;20072;-69
2023/10/20 12:45:01;;;;;;;26.67;20.52;;;;;;;15.56;86.39;94727.38;10407520;28;20476;-71
2023/10/20 12:50:22;;;;;;;28.13;21.42;;;;;;;15.47;86.23;94726.66;10380036;28;20069;-70
2023/10/20 12:55:43;;;;;;;27.02;19.27;;;;;;;15.47;86.84;94718.22;10421771;28;20041;-71
2023/10/20 13:01:03;;;;;;;27.55;18.88;;;;;;;15.48;86.56;94722.44;10406785;28;20448;-70
2023/10/20 13:06:25;;;;;;;25.48;18.35;;;;;;;15.54;86.71;94744.94;10406092;28;20084;-70
2023/10/20 13:11:46;;;;;;;25.80;19.95;;;;;;;15.52;86.29;94750.53;10393292;28;20179;-70
2023/10/20 13:17:07;;;;;;;25.40;19.77;;;;;;;15.50;86.38;94741.41;10420918;28;20172;-70
2023/10/20 13:22:28;;;;;;;24.85;17.90;;;;;;;15.56;87.05;94749.88;10420724;28;20041;-70
2023/10/20 13:27:49;;;;;;;25.50;18.60;;;;;;;15.67;86.67;94756.91;10405923;28;20048;-70
2023/10/20 13:33:10;;;;;;;24.38;17.05;;;;;;;15.74;87.07;94759.03;10391619;28;20073;-71
2023/10/20 13:38:32;;;;;;;27.80;17.52;;;;;;;15.85;86.64;94747.78;10405470;28;20061;-70
2023/10/20 13:43:53;;;;;;;19.85;15.75;;;;;;;15.85;86.37;94725.97;10391533;28;20052;-70
2023/10/20 13:49:13;;;;;;;24.80;16.83;;;;;;;15.73;86.35;94726.69;10419917;28;20122;-70
2023/10/20 13:54:35;;;;;;;25.85;16.73;;;;;;;15.66;86.65;94719.66;10391396;28;20514;-70
2023/10/20 13:59:56;;;;;;;20.98;15.45;;;;;;;15.57;87.35;94723.16;10419394;28;20172;-70
2023/10/20 14:05:18;;;;;;;24.33;16.33;;;;;;;15.51;87.91;94726.66;10390373;28;20389;-70
2023/10/20 14:10:39;;;;;;;23.00;15.53;;;;;;;15.56;87.35;94747.75;10390511;28;20064;-71
2023/10/20 14:16:00;;;;;;;22.77;15.50;;;;;;;15.63;88.26;94759.72;10404038;28;20560;-70
2023/10/20 14:21:21;;;;;;;22.48;14.43;;;;;;;15.77;87.75;94775.91;10403328;28;20483;-70
2023/10/20 14:26:42;;;;;;;22.95;14.65;;;;;;;15.74;87.39;94792.06;10403319;28;20125;-70
2023/10/20 14:32:04;;;;;;;21.20;15.73;;;;;;;15.57;88.27;94794.13;10403098;28;20057;-70
2023/10/20 14:37:25;;;;;;;22.08;14.77;;;;;;;15.48;88.42;94778.66;10417838;28;20069;-70
2023/10/20 14:42:46;;;;;;;22.63;14.68;;;;;;;15.41;88.58;94761.09;10402787;28;20068;-70
2023/10/20 14:48:07;;;;;;;20.33;13.95;;;;;;;15.42;89.67;94765.28;10402856;28;20122;-70
2023/10/20 14:53:28;;;;;;;23.15;14.60;;;;;;;15.48;89.32;94767.41;10402614;28;20120;-70
2023/10/20 14:58:49;;;;;;;21.73;14.25;;;;;;;15.52;88.89;94769.53;10402482;28;20169;-70
2023/10/20 15:04:12;;;;;;;18.70;13.32;;;;;;;15.54;89.03;94787.13;10391659;28;20519;-71
2023/10/20 15:09:49;;;;;;;20.20;13.90;;;;;;;15.51;89.66;94782.88;10395646;28;20403;-70
2023/10/20 15:15:10;;;;;;;18.77;13.50;;;;;;;15.45;89.28;94794.81;10416552;28;20125;-71
2023/10/20 15:20:31;;;;;;;20.88;13.00;;;;;;;15.40;89.61;94823.63;10401723;28;20116;-70
2023/10/20 15:25:51;;;;;;;18.42;12.25;;;;;;;15.34;89.86;94821.47;10387649;28;20045;-70
2023/10/20 15:31:12;;;;;;;20.75;13.20;;;;;;;15.28;90.13;94829.22;10416045;28;20080;-70
2023/10/20 15:36:46;;;;;;;23.77;13.38;;;;;;;15.16;89.56;94824.97;10401030;28;20112;-70
2023/10/20 15:42:07;;;;;;;;;;;;;;;15.07;90.64;94842.50;10401282;28;20121;-70
2023/10/20 15:47:27;;;;;;;18.38;12.93;;;;;;;14.98;90.78;94849.47;10414734;28;20339;-70
2023/10/20 15:52:48;;;;;;;19.52;14.45;;;;;;;14.85;91.22;94848.69;10400540;28;20073;-71
2023/10/20 15:58:09;;;;;;;20.75;14.07;;;;;;;14.73;91.37;94871.81;10400642;28;20068;-70
2023/10/20 16:03:30;;;;;;;24.15;14.77;;;;;;;14.66;91.39;94875.97;10386561;28;20084;-70
2023/10/20 16:08:53;;;;;;;21.35;14.93;;;;;;;14.59;91.84;94869.63;10400578;28;20500;-71
2023/10/20 16:14:13;;;;;;;23.15;16.17;;;;;;;14.52;90.87;94853.44;10420089;28;20053;-72
2023/10/20 16:19:37;;;;;;;24.77;18.02;;;;;;;14.46;91.93;94834.44;10401765;28;20096;-71
2023/10/20 16:25:02;;;;;;;26.42;17.17;;;;;;;14.45;91.91;94883.56;10388019;28;20072;-71
2023/10/20 16:30:23;;;;;;;28.30;17.75;;;;;;;14.43;92.32;94897.56;10399983;28;20112;-71
2023/10/20 16:35:46;;;;;;;26.48;17.10;;;;;;;14.41;92.62;94905.97;10386347;28;20103;-71
2023/10/20 16:41:08;;;;;;;27.70;18.17;;;;;;;14.39;92.85;94891.22;10402335;28;20064;-71
2023/10/20 16:46:29;;;;;;;21.48;16.92;;;;;;;14.36;92.65;94898.19;10393620;28;20056;-71
2023/10/20 16:51:49;;;;;;;26.02;17.83;;;;;;;14.30;93.11;94918.50;10422108;28;20100;-71
2023/10/20 16:57:10;;;;;;;27.77;17.90;;;;;;;14.31;93.31;94933.94;10407036;28;20476;-71
2023/10/20 17:02:31;;;;;;;25.63;18.75;;;;;;;14.29;92.72;94943.06;10406714;28;20053;-71
2023/10/20 17:07:52;;;;;;;31.25;19.98;;;;;;;14.31;92.55;94943.06;10379134;28;20498;-71
2023/10/20 17:13:13;;;;;;;33.15;22.30;;;;;;;14.27;93.04;94936.69;10378962;28;20065;-70
2023/10/20 17:18:33;;;;;;;31.55;22.33;;;;;;;14.25;92.22;94933.88;10405947;28;20119;-70
2023/10/20 17:23:55;;;;;;;36.28;23.02;;;;;;;14.22;93.12;94968.94;10392332;28;20146;-71
2023/10/20 17:29:16;;;;;;;35.35;23.73;;;;;;;14.22;92.68;95002.59;10406239;28;20052;-71
2023/10/20 17:34:39;;;;;;;36.17;24.65;;;;;;;14.20;93.15;95005.38;10420420;28;20103;-71
2023/10/20 17:40:00;;;;;;;45.28;26.40;;;;;;;14.21;93.33;95026.44;10420238;28;20073;-70
2023/10/20 17:45:26;;;;;;;48.45;28.77;;;;;;;14.22;93.17;95022.25;10405033;28;20199;-71
2023/10/20 17:50:47;;;;;;;42.88;26.75;;;;;;;14.18;93.34;95002.53;10391778;28;20117;-70
2023/10/20 17:56:08;;;;;;;42.30;27.75;;;;;;;14.17;93.80;95032.00;10403919;28;20061;-71
2023/10/20 18:01:28;;;;;;;42.55;27.75;;;;;;;14.16;93.35;94996.91;10404345;28;20116;-71
2023/10/20 18:06:49;;;;;;;38.10;26.98;;;;;;;14.12;93.70;94991.28;10377108;28;20069;-71
2023/10/20 18:12:11;;;;;;;44.33;27.52;;;;;;;14.10;94.24;95036.84;10390482;28;20495;-71
2023/10/20 18:17:33;;;;;;;43.05;27.08;;;;;;;14.04;94.05;95068.34;10404174;28;20108;-71
2023/10/20 18:22:56;;;;;;;38.17;27.02;;;;;;;14.03;93.81;95092.16;10390456;28;20550;-71
2023/10/20 18:28:17;;;;;;;42.58;28.05;;;;;;;13.98;93.55;95090.69;10418159;28;20116;-71
2023/10/20 18:33:38;;;;;;;39.88;26.48;;;;;;;13.91;93.29;95099.72;10375677;28;20440;-71
2023/10/20 18:39:16;;;;;;;40.03;27.27;;;;;;;13.85;93.23;95080.72;10403024;28;20116;-71
2023/10/20 18:44:54;;;;;;;42.03;26.08;;;;;;;13.76;93.41;95104.44;10393788;28;20041;-71
2023/10/20 18:50:15;;;;;;;38.75;26.05;;;;;;;13.73;93.99;95119.81;10402507;28;20121;-71
2023/10/20 18:55:37;;;;;;;35.03;24.02;;;;;;;13.69;94.20;95111.34;10417155;28;20046;-71
2023/10/20 19:00:58;;;;;;;39.08;26.17;;;;;;;13.66;94.32;95197.50;10417065;28;20167;-71
2023/10/20 19:06:19;;;;;;;38.50;24.05;;;;;;;13.64;94.28;95196.78;10374180;28;20136;-71
2023/10/20 19:11:41;;;;;;;36.78;23.90;;;;;;;13.62;94.18;95144.22;10416624;28;20069;-70
2023/10/20 19:17:02;;;;;;;38.10;25.02;;;;;;;13.62;94.59;95177.84;10374317;28;20045;-72
2023/10/20 19:22:23;;;;;;;40.60;26.23;;;;;;;13.59;94.32;95198.09;10401512;28;20043;-71
2023/10/20 19:27:44;;;;;;;36.85;24.55;;;;;;;13.54;93.99;95219.75;10387576;28;20065;-70
2023/10/20 19:33:05;;;;;;;39.30;25.90;;;;;;;13.50;94.03;95202.16;10374029;28;20116;-70
2023/10/20 19:38:26;;;;;;;38.22;25.55;;;;;;;13.44;94.21;95169.16;10387530;28;20044;-71
2023/10/20 19:43:47;;;;;;;33.08;23.42;;;;;;;13.38;94.16;95199.88;10400736;28;20069;-71
2023/10/20 19:49:07;;;;;;;37.28;24.52;;;;;;;13.33;94.07;95218.00;10386942;28;20061;-71
2023/10/20 19:54:28;;;;;;;35.75;22.83;;;;;;;13.32;94.24;95258.63;10400685;28;20053;-71
2023/10/20 19:59:49;;;;;;;31.73;21.35;;;;;;;13.30;94.06;95259.28;10400676;28;20095;-71
2023/10/20 20:05:10;;;;;;;33.47;23.20;;;;;;;13.30;93.67;95259.28;10400426;28;20072;-71
2023/10/20 20:10:31;;;;;;;35.35;22.73;;;;;;;13.30;93.59;95245.28;10400725;28;20111;-71
2023/10/20 20:15:51;;;;;;;32.55;21.73;;;;;;;13.27;93.43;95273.94;10374912;28;20042;-71
2023/10/20 20:21:12;;;;;;;33.72;22.15;;;;;;;13.17;93.50;95291.94;10422209;28;20042;-71
2023/10/20 20:26:33;;;;;;;34.67;21.77;;;;;;;13.16;93.54;95312.22;10423585;28;20457;-69
2023/10/20 20:31:54;;;;;;;32.13;20.88;;;;;;;13.14;93.42;95318.50;10414207;28;20498;-73
2023/10/20 20:37:16;;;;;;;30.50;20.50;;;;;;;13.17;93.61;95328.34;10397417;28;20410;-71
2023/10/20 20:42:37;;;;;;;31.73;21.75;;;;;;;13.22;93.61;95356.47;10422175;28;20069;-71
2023/10/20 20:47:59;;;;;;;31.02;20.75;;;;;;;13.22;93.40;95357.19;10391702;28;20084;-71
2023/10/20 20:53:21;;;;;;;29.45;20.55;;;;;;;13.23;93.08;95353.00;10393806;28;20507;-71
2023/10/20 20:58:42;;;;;;;27.10;19.40;;;;;;;13.25;92.84;95352.34;10393258;28;20056;-70
2023/10/20 21:04:04;;;;;;;25.35;17.58;;;;;;;13.22;92.39;95351.59;10406617;28;20060;-71
2023/10/20 21:09:26;;;;;;;25.63;18.67;;;;;;;13.21;92.39;95341.03;10406566;28;20117;-71
2023/10/20 21:14:46;;;;;;;25.75;17.77;;;;;;;13.12;91.95;95360.50;10378771;28;20076;-71
2023/10/20 21:20:08;;;;;;;26.98;17.65;;;;;;;13.10;92.47;95360.44;10420488;28;20049;-70
2023/10/20 21:25:28;;;;;;;25.05;17.15;;;;;;;13.12;92.71;95366.09;10405411;28;20156;-70
2023/10/20 21:30:51;;;;;;;27.05;18.58;;;;;;;13.10;92.15;95373.72;10419072;28;20065;-71
2023/10/20 21:36:14;;;;;;;27.53;18.57;;;;;;;13.01;91.83;95383.34;10391390;28;20492;-70
2023/10/20 21:41:34;;;;;;;27.48;19.10;;;;;;;12.96;91.92;95370.66;10391403;28;20068;-70
2023/10/20 21:46:55;;;;;;;27.00;19.33;;;;;;;12.96;91.85;95370.66;10390998;28;20045;-70
2023/10/20 21:52:16;;;;;;;28.60;19.27;;;;;;;12.92;92.29;95379.66;10419425;28;20054;-71
2023/10/20 21:57:37;;;;;;;29.33;19.02;;;;;;;12.95;92.17;95375.53;10390772;28;20062;-70
2023/10/20 22:02:57;;;;;;;29.10;20.08;;;;;;;12.97;92.33;95366.47;10418938;28;20479;-71
2023/10/20 22:08:19;;;;;;;32.30;21.42;;;;;;;12.92;91.42;95388.06;10403654;28;20041;-71
2023/10/20 22:13:39;;;;;;;33.63;22.67;;;;;;;12.86;91.67;95387.94;10403384;28;20072;-71
2023/10/20 22:19:00;;;;;;;29.17;20.08;;;;;;;12.83;91.87;95409.56;10389772;28;20118;-71
2023/10/20 22:24:20;;;;;;;30.42;20.65;;;;;;;12.85;92.46;95406.13;10402981;28;20136;-71
2023/10/20 22:29:41;;;;;;;30.10;20.88;;;;;;;12.88;92.13;95438.38;10403100;28;20175;-70
2023/10/20 22:35:02;;;;;;;29.48;20.58;;;;;;;12.87;91.65;95436.97;10388937;28;20057;-71
2023/10/20 22:40:23;;;;;;;31.00;21.48;;;;;;;12.84;91.52;95427.81;10416875;28;20418;-71
2023/10/20 22:45:44;;;;;;;30.15;20.80;;;;;;;12.81;91.46;95403.94;10388765;28;20416;-71
2023/10/20 22:51:05;;;;;;;31.65;20.83;;;;;;;12.80;91.59;95415.81;10402180;28;20499;-71
2023/10/20 22:56:26;;;;;;;27.52;19.15;;;;;;;12.81;91.52;95420.72;10415594;28;20487;-71
2023/10/20 23:01:46;;;;;;;28.88;21.17;;;;;;;12.80;91.48;95427.00;10416226;28;20496;-70
2023/10/20 23:07:07;;;;;;;29.50;20.17;;;;;;;12.79;91.42;95442.38;10401600;28;20069;-71
2023/10/20 23:12:28;;;;;;;27.80;19.85;;;;;;;12.73;91.49;95448.53;10401459;28;20065;-71
2023/10/20 23:17:49;;;;;;;27.15;19.20;;;;;;;12.72;91.56;95469.50;10387421;28;20049;-71
2023/10/20 23:23:09;;;;;;;29.20;19.98;;;;;;;12.67;91.47;95458.91;10415573;28;20120;-71
2023/10/20 23:28:30;;;;;;;26.25;18.73;;;;;;;12.67;91.73;95458.91;10387317;28;20503;-69
2023/10/20 23:33:51;;;;;;;26.70;18.95;;;;;;;12.58;91.27;95433.53;10415451;28;20045;-70
2023/10/20 23:39:12;;;;;;;25.73;18.98;;;;;;;12.51;91.62;95431.25;10386679;28;20487;-70
2023/10/20 23:44:32;;;;;;;25.67;17.88;;;;;;;12.50;91.91;95404.66;10373114;28;20091;-71
2023/10/20 23:49:54;;;;;;;25.30;17.60;;;;;;;12.42;91.60;95418.44;10414085;28;20053;-70
2023/10/20 23:55:14;;;;;;;24.17;17.63;;;;;;;12.42;91.82;95418.44;10386471;28;20099;-71
